createdAt,value
2017-08-26T00:01:27.692Z,29.58
2017-08-26T00:03:55.559Z,30.37
2017-08-26T00:06:23.289Z,24.17
2017-08-26T00:08:51.056Z,35.58
2017-08-26T00:11:18.771Z,25.60
2017-08-26T00:13:46.618Z,27.65
2017-08-26T00:16:14.486Z,29.55
2017-08-26T00:18:42.353Z,26.62
2017-08-26T00:21:10.219Z,28.87
2017-08-26T00:23:37.938Z,31.50
2017-08-26T00:26:05.750Z,24.10
2017-08-26T00:28:33.465Z,27.37
2017-08-26T00:31:01.231Z,29.73
2017-08-26T00:33:28.966Z,28.70
2017-08-26T00:35:56.809Z,26.75
2017-08-26T00:38:24.534Z,27.58
2017-08-26T00:40:52.287Z,32.15
2017-08-26T00:43:20.206Z,37.50
2017-08-26T00:45:48.080Z,33.70
2017-08-26T00:48:15.834Z,35.83
2017-08-26T00:50:43.707Z,30.25
2017-08-26T00:53:11.463Z,29.90
2017-08-26T00:55:39.235Z,27.25
2017-08-26T00:58:07.105Z,29.92
2017-08-26T01:00:34.841Z,31.62
2017-08-26T01:03:02.746Z,26.92
2017-08-26T01:05:30.603Z,28.98
2017-08-26T01:07:58.576Z,32.92
2017-08-26T01:10:26.438Z,28.35
2017-08-26T01:12:54.199Z,30.12
2017-08-26T01:15:21.946Z,26.40
2017-08-26T01:17:49.836Z,28.50
2017-08-26T01:20:17.704Z,26.80
2017-08-26T01:22:45.499Z,35.47
2017-08-26T01:25:13.231Z,27.60
2017-08-26T01:27:41.103Z,24.35
2017-08-26T01:30:08.835Z,33.58
2017-08-26T01:32:36.621Z,28.23
2017-08-26T01:35:04.495Z,23.65
2017-08-26T01:37:32.366Z,20.77
2017-08-26T01:40:00.230Z,26.80
2017-08-26T01:42:28.098Z,24.42
2017-08-26T01:44:55.965Z,29.17
2017-08-26T01:47:23.832Z,30.10
2017-08-26T01:49:51.570Z,21.05
2017-08-26T01:52:19.303Z,24.50
2017-08-26T01:54:47.126Z,25.98
2017-08-26T01:57:14.869Z,32.30
2017-08-26T01:59:42.656Z,25.70
2017-08-26T02:02:10.528Z,26.05
2017-08-26T02:04:38.390Z,24.23
2017-08-26T02:07:06.257Z,23.20
2017-08-26T02:09:33.998Z,28.20
2017-08-26T02:12:01.893Z,29.55
2017-08-26T02:14:29.757Z,25.95
2017-08-26T02:16:57.625Z,24.60
2017-08-26T02:19:25.350Z,25.42
2017-08-26T02:21:53.079Z,28.85
2017-08-26T02:24:20.812Z,39.70
2017-08-26T02:26:48.540Z,47.25
2017-08-26T02:29:16.268Z,34.38
2017-08-26T02:31:44.008Z,28.90
2017-08-26T02:34:11.734Z,29.15
2017-08-26T02:36:39.459Z,38.67
2017-08-26T02:39:07.214Z,27.48
2017-08-26T02:41:34.942Z,26.40
2017-08-26T02:44:02.658Z,28.08
2017-08-26T02:46:30.505Z,26.10
2017-08-26T02:48:58.230Z,29.63
2017-08-26T02:51:25.942Z,31.70
2017-08-26T02:53:53.675Z,31.65
2017-08-26T02:56:21.397Z,30.10
2017-08-26T02:58:49.115Z,31.55
2017-08-26T03:01:16.846Z,27.37
2017-08-26T03:03:44.572Z,21.83
2017-08-26T03:06:12.294Z,27.55
2017-08-26T03:08:40.011Z,22.62
2017-08-26T03:11:07.836Z,22.70
2017-08-26T03:13:35.558Z,23.58
2017-08-26T03:16:03.286Z,19.65
2017-08-26T03:18:31.018Z,21.27
2017-08-26T03:20:58.896Z,20.90
2017-08-26T03:23:26.766Z,32.15
2017-08-26T03:25:54.482Z,21.42
2017-08-26T03:28:22.213Z,21.77
2017-08-26T03:30:49.952Z,21.23
2017-08-26T03:33:17.683Z,22.62
2017-08-26T03:35:45.406Z,21.40
2017-08-26T03:38:13.122Z,19.10
2017-08-26T03:40:40.838Z,18.45
2017-08-26T03:43:08.553Z,19.90
2017-08-26T03:45:36.333Z,21.00
2017-08-26T03:48:04.062Z,17.70
2017-08-26T03:50:31.779Z,17.65
2017-08-26T03:52:59.538Z,22.60
2017-08-26T03:55:27.258Z,20.98
2017-08-26T03:57:55.061Z,22.42
2017-08-26T04:00:22.806Z,20.80
2017-08-26T04:02:50.592Z,22.52
2017-08-26T04:05:18.460Z,18.98
2017-08-26T04:07:46.325Z,13.48
2017-08-26T04:10:14.192Z,18.20
2017-08-26T04:12:42.060Z,20.42
2017-08-26T04:15:09.931Z,20.95
2017-08-26T04:17:37.670Z,16.87
2017-08-26T04:20:05.393Z,18.05
2017-08-26T04:22:33.114Z,17.50
2017-08-26T04:25:00.826Z,24.45
2017-08-26T04:27:28.653Z,18.73
2017-08-26T04:29:56.371Z,21.92
2017-08-26T04:32:24.461Z,20.00
2017-08-26T04:34:52.195Z,23.95
2017-08-26T04:37:19.971Z,18.80
2017-08-26T04:39:51.292Z,27.17
2017-08-26T04:42:23.019Z,20.30
2017-08-26T04:44:54.334Z,16.45
2017-08-26T04:47:25.572Z,23.35
2017-08-26T04:49:56.598Z,19.87
2017-08-26T04:52:28.982Z,19.90
2017-08-26T04:55:01.485Z,19.30
2017-08-26T04:57:33.980Z,29.12
2017-08-26T05:00:05.472Z,36.90
2017-08-26T05:02:36.662Z,36.85
2017-08-26T05:05:07.548Z,28.65
2017-08-26T05:07:38.322Z,30.33
2017-08-26T05:10:08.829Z,28.70
2017-08-26T05:12:39.532Z,24.00
2017-08-26T05:15:11.361Z,26.00
2017-08-26T05:17:42.365Z,19.00
2017-08-26T05:20:14.199Z,20.90
2017-08-26T05:22:45.550Z,25.70
2017-08-26T05:25:17.154Z,34.92
2017-08-26T05:27:48.364Z,27.62
2017-08-26T05:30:21.101Z,23.98
2017-08-26T05:32:52.691Z,29.12
2017-08-26T05:35:26.793Z,22.90
2017-08-26T05:37:57.730Z,22.50
2017-08-26T05:40:25.583Z,21.40
2017-08-26T05:42:53.334Z,23.35
2017-08-26T05:45:21.099Z,16.40
2017-08-26T05:47:48.843Z,31.00
2017-08-26T05:50:16.587Z,19.17
2017-08-26T05:52:44.331Z,16.65
2017-08-26T05:55:12.062Z,15.48
2017-08-26T05:57:39.789Z,20.33
2017-08-26T06:00:07.555Z,17.73
2017-08-26T06:02:35.279Z,17.85
2017-08-26T06:05:03.007Z,15.80
2017-08-26T06:07:30.742Z,19.00
2017-08-26T06:09:58.474Z,16.87
2017-08-26T06:12:26.206Z,14.40
2017-08-26T06:14:53.932Z,18.77
2017-08-26T06:17:21.658Z,18.95
2017-08-26T06:19:49.396Z,17.58
2017-08-26T06:22:17.110Z,17.33
2017-08-26T06:24:44.836Z,16.35
2017-08-26T06:27:12.558Z,16.80
2017-08-26T06:29:40.293Z,17.17
2017-08-26T06:32:08.012Z,13.23
2017-08-26T06:34:35.723Z,12.73
2017-08-26T06:37:03.446Z,13.20
2017-08-26T06:39:31.178Z,12.25
2017-08-26T06:41:58.895Z,13.88
2017-08-26T06:44:26.609Z,12.70
2017-08-26T06:46:54.334Z,10.35
2017-08-26T06:49:22.066Z,11.45
2017-08-26T06:51:49.793Z,19.50
2017-08-26T06:54:17.515Z,15.93
2017-08-26T06:56:45.234Z,18.10
2017-08-26T06:59:12.947Z,10.68
2017-08-26T07:01:40.663Z,14.55
2017-08-26T07:04:08.375Z,11.32
2017-08-26T07:06:36.082Z,9.50
2017-08-26T07:09:03.908Z,15.68
2017-08-26T07:11:31.624Z,14.38
2017-08-26T07:13:59.350Z,11.35
2017-08-26T07:16:27.059Z,13.48
2017-08-26T07:18:54.775Z,13.32
2017-08-26T07:21:22.498Z,13.25
2017-08-26T07:23:50.229Z,16.15
2017-08-26T07:26:17.950Z,15.45
2017-08-26T07:28:45.666Z,12.77
2017-08-26T07:31:13.390Z,13.57
2017-08-26T07:33:41.125Z,15.20
2017-08-26T07:36:08.862Z,13.25
2017-08-26T07:38:36.583Z,11.80
2017-08-26T07:41:04.307Z,14.27
2017-08-26T07:43:32.026Z,17.48
2017-08-26T07:45:59.743Z,16.58
2017-08-26T07:48:27.459Z,12.55
2017-08-26T07:50:55.262Z,16.12
2017-08-26T07:53:22.982Z,15.57
2017-08-26T07:55:50.701Z,22.80
2017-08-26T07:58:18.418Z,29.80
2017-08-26T08:00:46.197Z,32.80
2017-08-26T08:03:13.942Z,41.25
2017-08-26T08:05:41.663Z,45.15
2017-08-26T08:08:09.386Z,37.00
2017-08-26T08:10:37.102Z,50.25
2017-08-26T08:13:04.830Z,63.15
2017-08-26T08:15:32.550Z,50.88
2017-08-26T08:18:00.271Z,66.18
2017-08-26T08:20:27.993Z,65.35
2017-08-26T08:22:55.719Z,67.37
2017-08-26T08:25:23.438Z,68.00
2017-08-26T08:27:51.159Z,60.22
2017-08-26T08:30:18.883Z,55.50
2017-08-26T08:32:46.603Z,50.83
2017-08-26T08:35:14.330Z,51.17
2017-08-26T08:37:42.050Z,69.30
2017-08-26T08:40:09.823Z,46.90
2017-08-26T08:42:37.558Z,46.25
2017-08-26T08:45:05.283Z,45.78
2017-08-26T08:47:33.059Z,44.60
2017-08-26T08:50:00.784Z,48.45
2017-08-26T08:52:28.498Z,48.65
2017-08-26T08:54:56.343Z,47.00
2017-08-26T08:57:24.116Z,42.55
2017-08-26T08:59:51.842Z,40.00
2017-08-26T09:02:19.740Z,38.13
2017-08-26T09:04:47.607Z,36.38
2017-08-26T09:07:15.474Z,36.63
2017-08-26T09:09:43.341Z,30.40
2017-08-26T09:12:11.208Z,31.25
2017-08-26T09:14:39.076Z,32.20
2017-08-26T09:17:07.046Z,30.50
2017-08-26T09:19:34.779Z,34.50
2017-08-26T09:22:02.501Z,33.30
2017-08-26T09:24:30.223Z,33.53
2017-08-26T09:26:57.943Z,35.05
2017-08-26T09:29:26.382Z,30.85
2017-08-26T09:31:54.103Z,28.05
2017-08-26T09:34:21.834Z,29.95
2017-08-26T09:36:50.087Z,33.47
2017-08-26T09:39:17.953Z,30.15
2017-08-26T09:41:45.820Z,31.92
2017-08-26T09:44:13.687Z,31.17
2017-08-26T09:46:41.660Z,29.05
2017-08-26T09:49:09.940Z,31.02
2017-08-26T09:51:37.904Z,29.50
2017-08-26T09:54:05.771Z,26.87
2017-08-26T09:56:33.575Z,32.70
2017-08-26T09:59:01.403Z,31.48
2017-08-26T10:01:29.270Z,32.60
2017-08-26T10:03:57.138Z,28.33
2017-08-26T10:06:25.008Z,27.08
2017-08-26T10:08:52.873Z,25.75
2017-08-26T10:11:20.739Z,30.88
2017-08-26T10:13:48.607Z,32.03
2017-08-26T10:16:16.474Z,28.90
2017-08-26T10:18:44.230Z,29.05
2017-08-26T10:21:11.958Z,29.80
2017-08-26T10:23:39.702Z,31.77
2017-08-26T10:26:07.430Z,27.80
2017-08-26T10:28:35.182Z,27.05
2017-08-26T10:31:03.015Z,31.45
2017-08-26T10:33:30.776Z,37.10
2017-08-26T10:35:58.592Z,30.40
2017-08-26T10:38:26.460Z,25.73
2017-08-26T10:40:54.327Z,25.65
2017-08-26T10:43:22.195Z,26.92
2017-08-26T10:45:50.062Z,27.10
2017-08-26T10:48:17.929Z,27.48
2017-08-26T10:50:45.796Z,34.80
2017-08-26T10:53:13.662Z,22.70
2017-08-26T10:55:41.530Z,24.87
2017-08-26T10:58:09.500Z,30.98
2017-08-26T11:00:37.367Z,25.62
2017-08-26T11:03:05.234Z,32.38
2017-08-26T11:05:33.102Z,26.80
2017-08-26T11:08:00.969Z,24.92
2017-08-26T11:10:28.840Z,25.08
2017-08-26T11:12:56.706Z,23.40
2017-08-26T11:15:24.572Z,24.30
2017-08-26T11:17:52.441Z,29.73
2017-08-26T11:20:20.310Z,24.25
2017-08-26T11:22:48.178Z,20.85
2017-08-26T11:25:16.043Z,28.00
2017-08-26T11:27:43.908Z,25.92
2017-08-26T11:30:11.785Z,22.92
2017-08-26T11:32:39.642Z,28.35
2017-08-26T11:35:07.509Z,21.87
2017-08-26T11:37:36.219Z,23.67
2017-08-26T11:40:04.167Z,21.55
2017-08-26T11:42:31.929Z,21.67
2017-08-26T11:45:00.004Z,20.20
2017-08-26T11:47:27.869Z,19.70
2017-08-26T11:49:55.736Z,17.65
2017-08-26T11:52:23.609Z,24.05
2017-08-26T11:54:51.475Z,18.37
2017-08-26T11:57:19.343Z,23.60
2017-08-26T11:59:47.205Z,18.25
2017-08-26T12:02:15.072Z,24.85
2017-08-26T12:04:42.942Z,18.42
2017-08-26T12:07:10.808Z,21.65
2017-08-26T12:09:38.674Z,22.23
2017-08-26T12:12:06.541Z,21.90
2017-08-26T12:14:34.409Z,16.92
2017-08-26T12:17:02.206Z,17.62
2017-08-26T12:19:30.145Z,20.20
2017-08-26T12:21:58.012Z,17.80
2017-08-26T12:24:25.877Z,19.10
2017-08-26T12:26:53.745Z,15.20
2017-08-26T12:29:21.612Z,18.95
2017-08-26T12:31:49.582Z,15.43
2017-08-26T12:34:17.453Z,13.02
2017-08-26T12:36:45.317Z,14.32
2017-08-26T12:39:13.183Z,18.52
2017-08-26T12:41:41.075Z,10.32
2017-08-26T12:44:08.918Z,15.13
2017-08-26T12:46:36.785Z,11.07
2017-08-26T12:49:04.653Z,10.57
2017-08-26T12:51:32.519Z,11.98
2017-08-26T12:54:00.387Z,12.32
2017-08-26T12:56:28.253Z,13.25
2017-08-26T12:58:56.121Z,11.30
2017-08-26T13:01:23.988Z,11.77
2017-08-26T13:03:51.855Z,11.50
2017-08-26T13:06:19.723Z,10.00
2017-08-26T13:08:47.594Z,9.73
2017-08-26T13:11:15.457Z,11.07
2017-08-26T13:13:43.324Z,12.00
2017-08-26T13:16:11.191Z,13.32
2017-08-26T13:18:39.059Z,11.57
2017-08-26T13:21:06.926Z,13.38
2017-08-26T13:23:34.794Z,10.07
2017-08-26T13:26:02.668Z,9.43
2017-08-26T13:28:30.528Z,9.27
2017-08-26T13:30:58.396Z,11.50
2017-08-26T13:33:26.262Z,9.48
2017-08-26T13:35:54.130Z,10.70
2017-08-26T13:38:21.996Z,12.18
2017-08-26T13:40:49.865Z,10.85
2017-08-26T13:43:17.731Z,12.70
2017-08-26T13:45:45.598Z,9.38
2017-08-26T13:48:13.465Z,8.93
2017-08-26T13:50:41.231Z,11.90
2017-08-26T13:53:09.097Z,11.48
2017-08-26T13:55:36.968Z,9.90
2017-08-26T13:58:04.832Z,10.38
2017-08-26T14:00:32.699Z,11.73
2017-08-26T14:03:00.566Z,10.43
2017-08-26T14:05:28.433Z,10.85
2017-08-26T14:07:56.299Z,9.55
2017-08-26T14:10:24.168Z,9.68
2017-08-26T14:12:52.036Z,12.20
2017-08-26T14:15:19.902Z,9.40
2017-08-26T14:17:47.769Z,8.75
2017-08-26T14:20:15.636Z,8.57
2017-08-26T14:22:43.503Z,10.52
2017-08-26T14:25:14.357Z,8.93
2017-08-26T14:27:45.672Z,9.48
2017-08-26T14:30:18.263Z,8.60
2017-08-26T14:32:49.449Z,10.25
2017-08-26T14:35:21.963Z,11.77
2017-08-26T14:37:53.399Z,13.60
2017-08-26T14:40:24.598Z,8.65
2017-08-26T14:42:53.835Z,8.82
2017-08-26T14:45:21.679Z,13.02
2017-08-26T14:47:51.102Z,15.48
2017-08-26T14:50:20.171Z,11.80
2017-08-26T14:52:48.021Z,10.82
2017-08-26T14:55:16.406Z,9.63
2017-08-26T14:57:47.543Z,12.27
2017-08-26T15:00:18.071Z,17.23
2017-08-26T15:02:51.281Z,10.80
2017-08-26T15:05:23.619Z,10.65
2017-08-26T15:07:55.905Z,13.98
2017-08-26T15:10:28.068Z,13.77
2017-08-26T15:13:01.264Z,11.10
2017-08-26T15:15:34.393Z,9.50
2017-08-26T15:18:05.288Z,9.50
2017-08-26T15:20:35.479Z,12.27
2017-08-26T15:23:06.651Z,9.57
2017-08-26T15:25:42.651Z,9.10
2017-08-26T15:28:10.483Z,9.23
2017-08-26T15:30:38.359Z,8.60
2017-08-26T15:33:06.223Z,16.17
2017-08-26T15:35:37.245Z,9.63
2017-08-26T15:38:08.659Z,9.32
2017-08-26T15:40:40.267Z,10.73
2017-08-26T15:43:11.502Z,9.55
2017-08-26T15:45:43.658Z,9.90
2017-08-26T15:48:15.403Z,9.63
2017-08-26T15:50:48.089Z,12.63
2017-08-26T15:53:21.128Z,11.05
2017-08-26T15:55:55.688Z,9.60
2017-08-26T15:58:28.600Z,10.60
2017-08-26T16:01:01.995Z,12.10
2017-08-26T16:03:32.882Z,9.70
2017-08-26T16:06:04.119Z,9.25
2017-08-26T16:08:34.435Z,10.07
2017-08-26T16:11:04.189Z,10.48
2017-08-26T16:13:34.431Z,10.23
2017-08-26T16:16:05.842Z,16.23
2017-08-26T16:18:37.891Z,8.82
2017-08-26T16:21:10.145Z,10.57
2017-08-26T16:23:42.803Z,10.85
2017-08-26T16:26:14.927Z,9.65
2017-08-26T16:28:46.693Z,10.88
2017-08-26T16:31:18.126Z,12.23
2017-08-26T16:33:45.975Z,13.23
2017-08-26T16:36:17.326Z,13.10
2017-08-26T16:38:51.751Z,12.48
2017-08-26T16:41:22.936Z,18.00
2017-08-26T16:43:53.810Z,10.15
2017-08-26T16:46:25.495Z,12.65
2017-08-26T16:48:58.393Z,15.13
2017-08-26T16:51:29.939Z,13.98
2017-08-26T16:54:01.237Z,13.65
2017-08-26T16:56:32.943Z,14.35
2017-08-26T16:59:04.650Z,16.45
2017-08-26T17:01:36.757Z,14.23
2017-08-26T17:04:08.307Z,13.05
2017-08-26T17:06:39.163Z,15.07
2017-08-26T17:09:10.284Z,19.30
2017-08-26T17:11:41.180Z,18.02
2017-08-26T17:14:10.973Z,13.48
2017-08-26T17:16:40.369Z,20.55
2017-08-26T17:19:14.154Z,21.12
2017-08-26T17:21:45.865Z,19.65
2017-08-26T17:24:17.330Z,18.70
2017-08-26T17:26:48.833Z,23.20
2017-08-26T17:29:21.475Z,15.05
2017-08-26T17:31:53.809Z,17.20
2017-08-26T17:34:26.071Z,17.30
2017-08-26T17:36:58.279Z,16.85
2017-08-26T17:39:30.197Z,15.57
2017-08-26T17:42:02.301Z,15.60
2017-08-26T17:44:37.939Z,12.40
2017-08-26T17:47:09.498Z,13.73
2017-08-26T17:49:40.737Z,25.12
2017-08-26T17:52:11.582Z,20.30
2017-08-26T17:54:42.881Z,14.38
2017-08-26T17:57:15.341Z,15.68
2017-08-26T17:59:47.901Z,13.90
2017-08-26T18:02:20.455Z,16.40
2017-08-26T18:04:52.789Z,15.25
2017-08-26T18:07:24.785Z,17.00
2017-08-26T18:09:56.832Z,15.88
2017-08-26T18:12:28.455Z,16.10
2017-08-26T18:14:59.794Z,16.67
2017-08-26T18:17:29.939Z,15.52
2017-08-26T18:20:00.170Z,17.02
2017-08-26T18:22:30.959Z,20.35
2017-08-26T18:25:01.584Z,19.83
2017-08-26T18:27:33.369Z,20.58
2017-08-26T18:30:05.444Z,18.70
2017-08-26T18:32:37.442Z,18.83
2017-08-26T18:35:05.179Z,16.25
2017-08-26T18:37:32.903Z,15.23
2017-08-26T18:40:00.623Z,17.00
2017-08-26T18:42:28.350Z,19.55
2017-08-26T18:44:56.071Z,23.10
2017-08-26T18:47:23.790Z,16.33
2017-08-26T18:49:51.511Z,18.35
2017-08-26T18:52:19.231Z,20.62
2017-08-26T18:54:46.954Z,16.67
2017-08-26T18:57:14.682Z,18.48
2017-08-26T18:59:42.406Z,18.95
2017-08-26T19:02:10.122Z,20.55
2017-08-26T19:04:38.818Z,20.00
2017-08-26T19:07:06.547Z,22.70
2017-08-26T19:09:34.290Z,21.75
2017-08-26T19:12:02.016Z,25.05
2017-08-26T19:14:29.838Z,31.65
2017-08-26T19:16:57.557Z,39.85
2017-08-26T19:19:26.454Z,40.08
2017-08-26T19:21:54.209Z,30.73
2017-08-26T19:24:21.947Z,21.00
2017-08-26T19:26:49.674Z,22.58
2017-08-26T19:29:17.775Z,20.30
2017-08-26T19:31:45.502Z,15.48
2017-08-26T19:34:13.258Z,20.02
2017-08-26T19:36:40.986Z,24.52
2017-08-26T19:39:08.746Z,19.35
2017-08-26T19:41:36.466Z,19.73
2017-08-26T19:44:04.222Z,20.52
2017-08-26T19:46:31.953Z,21.17
2017-08-26T19:48:59.683Z,30.65
2017-08-26T19:51:27.542Z,22.20
2017-08-26T19:53:55.267Z,22.90
2017-08-26T19:56:22.994Z,23.35
2017-08-26T19:58:50.758Z,23.35
2017-08-26T20:01:18.487Z,20.98
2017-08-26T20:03:46.226Z,28.08
2017-08-26T20:06:13.953Z,27.08
2017-08-26T20:08:41.671Z,31.90
2017-08-26T20:11:09.407Z,23.70
2017-08-26T20:13:37.132Z,21.42
2017-08-26T20:16:04.859Z,25.52
2017-08-26T20:18:32.583Z,23.48
2017-08-26T20:21:00.335Z,23.27
2017-08-26T20:23:28.066Z,26.50
2017-08-26T20:25:55.790Z,32.65
2017-08-26T20:28:23.508Z,28.38
2017-08-26T20:30:51.223Z,28.30
2017-08-26T20:33:18.943Z,28.17
2017-08-26T20:35:46.944Z,26.20
2017-08-26T20:38:14.706Z,27.90
2017-08-26T20:40:42.422Z,23.40
2017-08-26T20:43:10.161Z,27.90
2017-08-26T20:45:37.903Z,29.95
2017-08-26T20:48:05.624Z,29.52
2017-08-26T20:50:33.350Z,23.85
2017-08-26T20:53:01.114Z,29.90
2017-08-26T20:55:28.904Z,26.77
2017-08-26T20:57:56.679Z,26.25
2017-08-26T21:00:24.449Z,34.42
2017-08-26T21:02:52.211Z,24.45
2017-08-26T21:05:20.003Z,32.17
2017-08-26T21:07:47.727Z,32.97
2017-08-26T21:10:15.446Z,28.65
2017-08-26T21:12:43.241Z,27.15
2017-08-26T21:15:10.966Z,31.83
2017-08-26T21:17:38.706Z,30.88
2017-08-26T21:20:06.430Z,33.58
2017-08-26T21:22:34.150Z,28.00
2017-08-26T21:25:01.878Z,37.45
2017-08-26T21:27:29.607Z,27.30
2017-08-26T21:29:57.359Z,24.58
2017-08-26T21:32:25.091Z,22.65
2017-08-26T21:34:52.827Z,22.15
2017-08-26T21:37:20.557Z,26.92
2017-08-26T21:39:48.287Z,38.60
2017-08-26T21:42:16.035Z,30.40
2017-08-26T21:44:43.762Z,30.77
2017-08-26T21:47:11.492Z,28.75
2017-08-26T21:49:39.227Z,25.92
2017-08-26T21:52:06.970Z,24.60
2017-08-26T21:54:34.693Z,22.95
2017-08-26T21:57:02.476Z,27.92
2017-08-26T21:59:30.203Z,40.80
2017-08-26T22:01:57.919Z,39.97
2017-08-26T22:04:25.670Z,39.60
2017-08-26T22:06:53.391Z,37.63
2017-08-26T22:09:21.145Z,37.42
2017-08-26T22:11:48.898Z,33.15
2017-08-26T22:14:16.634Z,33.33
2017-08-26T22:16:44.362Z,28.83
2017-08-26T22:19:12.110Z,25.58
2017-08-26T22:21:39.866Z,29.48
2017-08-26T22:24:15.486Z,27.08
2017-08-26T22:26:43.206Z,29.00
2017-08-26T22:29:10.935Z,23.62
2017-08-26T22:31:38.659Z,21.30
2017-08-26T22:34:06.395Z,24.98
2017-08-26T22:36:34.119Z,22.27
2017-08-26T22:39:01.850Z,23.75
2017-08-26T22:41:29.574Z,18.33
2017-08-26T22:43:57.298Z,11.73
2017-08-26T22:46:25.058Z,12.10
2017-08-26T22:48:52.795Z,21.67
2017-08-26T22:51:20.522Z,20.00
2017-08-26T22:53:48.263Z,21.48
2017-08-26T22:56:16.011Z,21.00
2017-08-26T22:58:43.740Z,24.23
2017-08-26T23:01:11.654Z,19.33
2017-08-26T23:03:39.370Z,24.90
2017-08-26T23:06:07.095Z,26.65
2017-08-26T23:08:34.847Z,22.87
2017-08-26T23:11:03.330Z,29.55
2017-08-26T23:13:31.070Z,22.23
2017-08-26T23:15:58.801Z,24.27
2017-08-26T23:18:26.527Z,19.45
2017-08-26T23:20:54.248Z,23.23
2017-08-26T23:23:22.003Z,20.75
2017-08-26T23:25:49.727Z,22.00
2017-08-26T23:28:18.211Z,19.98
2017-08-26T23:30:45.950Z,14.15
2017-08-26T23:33:13.671Z,15.20
2017-08-26T23:35:41.396Z,13.00
2017-08-26T23:38:09.883Z,11.23
2017-08-26T23:40:37.622Z,12.75
2017-08-26T23:43:05.339Z,12.45
2017-08-26T23:45:33.104Z,14.57
2017-08-26T23:48:00.857Z,22.42
2017-08-26T23:50:28.615Z,17.90
2017-08-26T23:52:56.344Z,17.80
2017-08-26T23:55:24.072Z,16.73
2017-08-26T23:57:51.802Z,18.95
